sensor_id;sensor_type;location;lat;lon;timestamp;temperature;humidity
7143;DHT22;3613;48.902;9.204;2023-03-23T00:02:15;13.70;99.90
7143;DHT22;3613;48.902;9.204;2023-03-23T00:04:41;13.80;99.90
7143;DHT22;3613;48.902;9.204;2023-03-23T00:07:08;13.80;99.90
7143;DHT22;3613;48.902;9.204;2023-03-23T00:09:33;13.80;99.90
7143;DHT22;3613;48.902;9.204;2023-03-23T00:12:00;13.90;99.90
7143;DHT22;3613;48.902;9.204;2023-03-23T00:14:34;13.70;99.90
7143;DHT22;3613;48.902;9.204;2023-03-23T00:17:07;13.80;99.90
7143;DHT22;3613;48.902;9.204;2023-03-23T00:19:36;13.90;99.90
7143;DHT22;3613;48.902;9.204;2023-03-23T00:22:14;13.90;99.90
7143;DHT22;3613;48.902;9.204;2023-03-23T00:24:43;14.00;99.90
7143;DHT22;3613;48.902;9.204;2023-03-23T00:27:10;14.00;99.90
7143;DHT22;3613;48.902;9.204;2023-03-23T00:29:41;14.10;99.90
7143;DHT22;3613;48.902;9.204;2023-03-23T00:32:08;14.10;99.90
7143;DHT22;3613;48.902;9.204;2023-03-23T00:34:40;14.10;99.90
7143;DHT22;3613;48.902;9.204;2023-03-23T00:37:11;14.10;99.90
7143;DHT22;3613;48.902;9.204;2023-03-23T00:39:39;14.10;99.90
7143;DHT22;3613;48.902;9.204;2023-03-23T00:42:12;14.10;99.90
7143;DHT22;3613;48.902;9.204;2023-03-23T00:44:38;14.20;99.90
7143;DHT22;3613;48.902;9.204;2023-03-23T00:47:05;14.20;99.90
7143;DHT22;3613;48.902;9.204;2023-03-23T00:49:35;14.20;99.90
7143;DHT22;3613;48.902;9.204;2023-03-23T00:52:02;14.20;99.90
7143;DHT22;3613;48.902;9.204;2023-03-23T00:54:30;14.30;99.90
7143;DHT22;3613;48.902;9.204;2023-03-23T00:56:56;14.50;99.90
7143;DHT22;3613;48.902;9.204;2023-03-23T00:59:26;14.40;99.90
7143;DHT22;3613;48.902;9.204;2023-03-23T01:01:55;14.40;99.90
7143;DHT22;3613;48.902;9.204;2023-03-23T01:04:20;14.30;99.90
7143;DHT22;3613;48.902;9.204;2023-03-23T01:06:50;14.50;99.90
7143;DHT22;3613;48.902;9.204;2023-03-23T01:09:18;14.40;99.90
7143;DHT22;3613;48.902;9.204;2023-03-23T01:11:51;14.40;99.90
7143;DHT22;3613;48.902;9.204;2023-03-23T01:14:22;14.40;99.90
7143;DHT22;3613;48.902;9.204;2023-03-23T01:16:47;14.40;99.90
7143;DHT22;3613;48.902;9.204;2023-03-23T01:19:13;14.50;99.90
7143;DHT22;3613;48.902;9.204;2023-03-23T01:21:40;14.50;99.90
7143;DHT22;3613;48.902;9.204;2023-03-23T01:24:08;14.60;99.90
7143;DHT22;3613;48.902;9.204;2023-03-23T01:26:34;14.60;99.90
7143;DHT22;3613;48.902;9.204;2023-03-23T01:29:00;14.50;99.90
7143;DHT22;3613;48.902;9.204;2023-03-23T01:31:26;14.50;99.90
7143;DHT22;3613;48.902;9.204;2023-03-23T01:33:53;14.50;99.90
7143;DHT22;3613;48.902;9.204;2023-03-23T01:36:27;14.40;99.90
7143;DHT22;3613;48.902;9.204;2023-03-23T01:38:54;14.50;99.90
7143;DHT22;3613;48.902;9.204;2023-03-23T01:41:20;14.50;99.90
7143;DHT22;3613;48.902;9.204;2023-03-23T01:46:41;14.40;99.90
7143;DHT22;3613;48.902;9.204;2023-03-23T01:49:17;14.30;99.90
7143;DHT22;3613;48.902;9.204;2023-03-23T01:51:46;14.10;99.90
7143;DHT22;3613;48.902;9.204;2023-03-23T01:54:15;14.00;99.90
7143;DHT22;3613;48.902;9.204;2023-03-23T01:56:55;13.90;99.90
7143;DHT22;3613;48.902;9.204;2023-03-23T01:59:22;13.90;99.90
7143;DHT22;3613;48.902;9.204;2023-03-23T02:01:49;13.80;99.90
7143;DHT22;3613;48.902;9.204;2023-03-23T02:04:17;13.80;99.90
7143;DHT22;3613;48.902;9.204;2023-03-23T02:06:44;13.70;99.90
7143;DHT22;3613;48.902;9.204;2023-03-23T02:09:11;13.60;99.90
7143;DHT22;3613;48.902;9.204;2023-03-23T02:11:39;13.60;99.90
7143;DHT22;3613;48.902;9.204;2023-03-23T02:14:08;13.50;99.90
7143;DHT22;3613;48.902;9.204;2023-03-23T02:16:54;13.50;99.90
7143;DHT22;3613;48.902;9.204;2023-03-23T02:25:18;13.40;99.90
7143;DHT22;3613;48.902;9.204;2023-03-23T02:28:12;13.40;99.90
7143;DHT22;3613;48.902;9.204;2023-03-23T02:33:58;13.50;99.90
7143;DHT22;3613;48.902;9.204;2023-03-23T02:36:43;13.50;99.90
7143;DHT22;3613;48.902;9.204;2023-03-23T02:42:17;13.50;99.90
7143;DHT22;3613;48.902;9.204;2023-03-23T02:44:45;13.40;99.90
7143;DHT22;3613;48.902;9.204;2023-03-23T02:47:23;13.30;99.90
7143;DHT22;3613;48.902;9.204;2023-03-23T02:49:53;13.20;99.90
7143;DHT22;3613;48.902;9.204;2023-03-23T02:52:22;13.10;99.90
7143;DHT22;3613;48.902;9.204;2023-03-23T02:54:51;13.10;99.90
7143;DHT22;3613;48.902;9.204;2023-03-23T02:57:18;13.10;99.90
7143;DHT22;3613;48.902;9.204;2023-03-23T02:59:44;13.10;99.90
7143;DHT22;3613;48.902;9.204;2023-03-23T03:13:14;13.20;99.90
7143;DHT22;3613;48.902;9.204;2023-03-23T03:16:12;13.20;99.90
7143;DHT22;3613;48.902;9.204;2023-03-23T03:18:58;13.30;99.90
7143;DHT22;3613;48.902;9.204;2023-03-23T03:21:28;13.30;99.90
7143;DHT22;3613;48.902;9.204;2023-03-23T03:23:57;13.20;99.90
7143;DHT22;3613;48.902;9.204;2023-03-23T03:26:30;13.20;99.90
7143;DHT22;3613;48.902;9.204;2023-03-23T03:28:57;13.30;99.90
7143;DHT22;3613;48.902;9.204;2023-03-23T03:31:41;13.30;99.90
7143;DHT22;3613;48.902;9.204;2023-03-23T03:34:11;13.30;99.90
7143;DHT22;3613;48.902;9.204;2023-03-23T03:36:46;13.30;99.90
7143;DHT22;3613;48.902;9.204;2023-03-23T03:39:16;13.40;99.90
7143;DHT22;3613;48.902;9.204;2023-03-23T03:41:43;13.30;99.90
7143;DHT22;3613;48.902;9.204;2023-03-23T03:44:09;13.40;99.90
7143;DHT22;3613;48.902;9.204;2023-03-23T03:46:37;13.50;99.90
7143;DHT22;3613;48.902;9.204;2023-03-23T03:49:05;13.60;99.90
7143;DHT22;3613;48.902;9.204;2023-03-23T03:51:32;13.60;99.90
7143;DHT22;3613;48.902;9.204;2023-03-23T03:54:01;13.50;99.90
7143;DHT22;3613;48.902;9.204;2023-03-23T03:56:27;13.40;99.90
7143;DHT22;3613;48.902;9.204;2023-03-23T03:58:57;13.40;99.90
7143;DHT22;3613;48.902;9.204;2023-03-23T04:01:22;13.40;99.90
7143;DHT22;3613;48.902;9.204;2023-03-23T04:03:50;13.30;99.90
7143;DHT22;3613;48.902;9.204;2023-03-23T04:06:16;13.40;99.90
7143;DHT22;3613;48.902;9.204;2023-03-23T04:08:42;13.40;99.90
7143;DHT22;3613;48.902;9.204;2023-03-23T04:11:14;13.50;99.90
7143;DHT22;3613;48.902;9.204;2023-03-23T04:13:42;13.40;99.90
7143;DHT22;3613;48.902;9.204;2023-03-23T04:16:10;13.40;99.90
7143;DHT22;3613;48.902;9.204;2023-03-23T04:18:36;13.40;99.90
7143;DHT22;3613;48.902;9.204;2023-03-23T04:21:02;13.30;99.90
7143;DHT22;3613;48.902;9.204;2023-03-23T04:23:30;13.40;99.90
7143;DHT22;3613;48.902;9.204;2023-03-23T04:25:56;13.40;99.90
7143;DHT22;3613;48.902;9.204;2023-03-23T04:28:24;13.50;99.90
7143;DHT22;3613;48.902;9.204;2023-03-23T04:30:56;13.60;99.90
7143;DHT22;3613;48.902;9.204;2023-03-23T04:33:23;13.70;99.90
7143;DHT22;3613;48.902;9.204;2023-03-23T04:35:51;13.70;99.90
7143;DHT22;3613;48.902;9.204;2023-03-23T04:38:17;13.70;99.90
7143;DHT22;3613;48.902;9.204;2023-03-23T04:40:47;13.70;99.90
7143;DHT22;3613;48.902;9.204;2023-03-23T04:43:14;16.30;99.90
7143;DHT22;3613;48.902;9.204;2023-03-23T04:45:40;13.70;99.90
7143;DHT22;3613;48.902;9.204;2023-03-23T04:48:10;13.80;99.90
7143;DHT22;3613;48.902;9.204;2023-03-23T04:50:39;13.80;99.90
7143;DHT22;3613;48.902;9.204;2023-03-23T04:53:07;13.80;99.90
7143;DHT22;3613;48.902;9.204;2023-03-23T04:55:35;13.70;99.90
7143;DHT22;3613;48.902;9.204;2023-03-23T04:58:03;13.70;99.90
7143;DHT22;3613;48.902;9.204;2023-03-23T05:00:33;13.70;99.90
7143;DHT22;3613;48.902;9.204;2023-03-23T05:02:59;13.70;99.90
7143;DHT22;3613;48.902;9.204;2023-03-23T05:05:27;13.60;99.90
7143;DHT22;3613;48.902;9.204;2023-03-23T05:07:54;13.60;99.90
7143;DHT22;3613;48.902;9.204;2023-03-23T05:10:20;13.60;99.90
7143;DHT22;3613;48.902;9.204;2023-03-23T05:12:48;13.80;99.90
7143;DHT22;3613;48.902;9.204;2023-03-23T05:15:15;13.70;99.90
7143;DHT22;3613;48.902;9.204;2023-03-23T05:17:41;13.70;99.90
7143;DHT22;3613;48.902;9.204;2023-03-23T05:20:15;13.60;99.90
7143;DHT22;3613;48.902;9.204;2023-03-23T05:22:46;13.60;99.90
7143;DHT22;3613;48.902;9.204;2023-03-23T05:25:17;13.60;99.90
7143;DHT22;3613;48.902;9.204;2023-03-23T05:27:46;13.60;99.90
7143;DHT22;3613;48.902;9.204;2023-03-23T05:30:19;13.60;99.90
7143;DHT22;3613;48.902;9.204;2023-03-23T05:32:45;13.70;99.90
7143;DHT22;3613;48.902;9.204;2023-03-23T05:35:16;13.60;99.90
7143;DHT22;3613;48.902;9.204;2023-03-23T05:37:43;13.60;99.90
7143;DHT22;3613;48.902;9.204;2023-03-23T05:40:12;13.60;99.90
7143;DHT22;3613;48.902;9.204;2023-03-23T05:42:41;13.50;99.90
7143;DHT22;3613;48.902;9.204;2023-03-23T05:45:10;13.50;99.90
7143;DHT22;3613;48.902;9.204;2023-03-23T05:47:36;13.60;99.90
7143;DHT22;3613;48.902;9.204;2023-03-23T05:50:02;13.70;99.90
7143;DHT22;3613;48.902;9.204;2023-03-23T05:52:30;13.70;99.90
7143;DHT22;3613;48.902;9.204;2023-03-23T05:55:00;13.60;99.90
7143;DHT22;3613;48.902;9.204;2023-03-23T05:57:25;13.80;99.90
7143;DHT22;3613;48.902;9.204;2023-03-23T05:59:52;13.80;99.90
7143;DHT22;3613;48.902;9.204;2023-03-23T06:02:20;13.80;99.90
7143;DHT22;3613;48.902;9.204;2023-03-23T06:04:51;13.80;99.90
7143;DHT22;3613;48.902;9.204;2023-03-23T06:07:23;14.00;99.90
7143;DHT22;3613;48.902;9.204;2023-03-23T06:09:50;14.10;99.90
7143;DHT22;3613;48.902;9.204;2023-03-23T06:12:16;14.20;99.90
7143;DHT22;3613;48.902;9.204;2023-03-23T06:14:46;14.20;99.90
7143;DHT22;3613;48.902;9.204;2023-03-23T06:17:12;14.40;99.90
7143;DHT22;3613;48.902;9.204;2023-03-23T06:19:37;14.40;99.90
7143;DHT22;3613;48.902;9.204;2023-03-23T06:22:03;14.40;99.90
7143;DHT22;3613;48.902;9.204;2023-03-23T06:24:30;14.50;99.90
7143;DHT22;3613;48.902;9.204;2023-03-23T06:27:00;14.50;99.90
7143;DHT22;3613;48.902;9.204;2023-03-23T06:29:26;14.50;99.90
7143;DHT22;3613;48.902;9.204;2023-03-23T06:31:56;14.40;99.90
7143;DHT22;3613;48.902;9.204;2023-03-23T06:34:22;14.50;99.90
7143;DHT22;3613;48.902;9.204;2023-03-23T06:36:48;14.40;99.90
7143;DHT22;3613;48.902;9.204;2023-03-23T06:39:14;14.40;99.90
7143;DHT22;3613;48.902;9.204;2023-03-23T06:41:42;14.50;99.90
7143;DHT22;3613;48.902;9.204;2023-03-23T06:44:08;14.50;99.90
7143;DHT22;3613;48.902;9.204;2023-03-23T06:46:34;14.50;99.90
7143;DHT22;3613;48.902;9.204;2023-03-23T06:49:04;14.50;99.90
7143;DHT22;3613;48.902;9.204;2023-03-23T06:51:30;14.40;99.90
7143;DHT22;3613;48.902;9.204;2023-03-23T06:53:58;14.40;99.90
7143;DHT22;3613;48.902;9.204;2023-03-23T06:56:24;14.50;99.90
7143;DHT22;3613;48.902;9.204;2023-03-23T06:58:50;14.80;99.90
7143;DHT22;3613;48.902;9.204;2023-03-23T07:01:18;14.90;99.90
7143;DHT22;3613;48.902;9.204;2023-03-23T07:03:46;15.30;99.90
7143;DHT22;3613;48.902;9.204;2023-03-23T07:06:14;15.40;99.90
7143;DHT22;3613;48.902;9.204;2023-03-23T07:08:40;15.40;99.90
7143;DHT22;3613;48.902;9.204;2023-03-23T07:11:06;15.40;99.90
7143;DHT22;3613;48.902;9.204;2023-03-23T07:13:35;15.30;99.90
7143;DHT22;3613;48.902;9.204;2023-03-23T07:16:01;15.20;99.90
7143;DHT22;3613;48.902;9.204;2023-03-23T07:18:28;15.10;99.90
7143;DHT22;3613;48.902;9.204;2023-03-23T07:20:54;15.20;99.90
7143;DHT22;3613;48.902;9.204;2023-03-23T07:23:22;15.20;99.90
7143;DHT22;3613;48.902;9.204;2023-03-23T07:25:47;15.10;99.90
7143;DHT22;3613;48.902;9.204;2023-03-23T07:28:14;15.10;99.90
7143;DHT22;3613;48.902;9.204;2023-03-23T07:30:42;15.00;99.90
7143;DHT22;3613;48.902;9.204;2023-03-23T07:33:10;15.00;99.90
7143;DHT22;3613;48.902;9.204;2023-03-23T07:35:37;14.90;99.90
7143;DHT22;3613;48.902;9.204;2023-03-23T07:38:05;14.90;99.90
7143;DHT22;3613;48.902;9.204;2023-03-23T07:40:31;15.00;99.90
7143;DHT22;3613;48.902;9.204;2023-03-23T07:43:01;14.90;99.90
7143;DHT22;3613;48.902;9.204;2023-03-23T07:45:27;15.00;99.90
7143;DHT22;3613;48.902;9.204;2023-03-23T07:47:56;15.10;99.90
7143;DHT22;3613;48.902;9.204;2023-03-23T07:50:22;15.20;99.90
7143;DHT22;3613;48.902;9.204;2023-03-23T07:52:53;15.30;99.90
7143;DHT22;3613;48.902;9.204;2023-03-23T07:55:21;15.50;99.90
7143;DHT22;3613;48.902;9.204;2023-03-23T07:57:50;15.90;99.90
7143;DHT22;3613;48.902;9.204;2023-03-23T08:00:19;16.20;99.90
7143;DHT22;3613;48.902;9.204;2023-03-23T08:02:54;16.40;99.90
7143;DHT22;3613;48.902;9.204;2023-03-23T08:05:26;16.70;99.90
7143;DHT22;3613;48.902;9.204;2023-03-23T08:07:53;16.80;99.90
7143;DHT22;3613;48.902;9.204;2023-03-23T08:10:21;16.60;99.90
7143;DHT22;3613;48.902;9.204;2023-03-23T08:12:51;16.60;99.90
7143;DHT22;3613;48.902;9.204;2023-03-23T08:15:17;16.60;99.90
7143;DHT22;3613;48.902;9.204;2023-03-23T08:17:46;16.50;99.90
7143;DHT22;3613;48.902;9.204;2023-03-23T08:20:15;16.60;99.90
7143;DHT22;3613;48.902;9.204;2023-03-23T08:22:48;16.60;99.90
7143;DHT22;3613;48.902;9.204;2023-03-23T08:25:14;16.60;99.90
7143;DHT22;3613;48.902;9.204;2023-03-23T08:27:44;16.50;99.90
7143;DHT22;3613;48.902;9.204;2023-03-23T08:30:15;16.50;99.90
7143;DHT22;3613;48.902;9.204;2023-03-23T08:32:42;16.50;99.90
7143;DHT22;3613;48.902;9.204;2023-03-23T08:35:11;16.50;99.90
7143;DHT22;3613;48.902;9.204;2023-03-23T08:37:38;16.30;99.90
7143;DHT22;3613;48.902;9.204;2023-03-23T08:40:04;16.40;99.90
7143;DHT22;3613;48.902;9.204;2023-03-23T08:42:41;16.50;99.90
7143;DHT22;3613;48.902;9.204;2023-03-23T08:45:10;16.50;99.90
7143;DHT22;3613;48.902;9.204;2023-03-23T08:47:37;16.60;99.90
7143;DHT22;3613;48.902;9.204;2023-03-23T08:50:07;16.50;99.90
7143;DHT22;3613;48.902;9.204;2023-03-23T08:52:35;16.30;99.90
7143;DHT22;3613;48.902;9.204;2023-03-23T08:55:01;16.30;99.90
7143;DHT22;3613;48.902;9.204;2023-03-23T08:57:27;16.30;99.90
7143;DHT22;3613;48.902;9.204;2023-03-23T08:59:52;16.30;99.90
7143;DHT22;3613;48.902;9.204;2023-03-23T09:02:25;16.20;99.90
7143;DHT22;3613;48.902;9.204;2023-03-23T09:04:52;16.10;99.90
7143;DHT22;3613;48.902;9.204;2023-03-23T09:07:19;16.00;99.90
7143;DHT22;3613;48.902;9.204;2023-03-23T09:09:46;15.90;99.90
7143;DHT22;3613;48.902;9.204;2023-03-23T09:12:15;15.80;99.90
7143;DHT22;3613;48.902;9.204;2023-03-23T09:14:40;15.80;99.90
7143;DHT22;3613;48.902;9.204;2023-03-23T09:17:06;15.80;99.90
7143;DHT22;3613;48.902;9.204;2023-03-23T09:19:35;15.70;99.90
7143;DHT22;3613;48.902;9.204;2023-03-23T09:22:04;15.80;99.90
7143;DHT22;3613;48.902;9.204;2023-03-23T09:24:30;15.70;99.90
7143;DHT22;3613;48.902;9.204;2023-03-23T09:26:55;15.70;99.90
7143;DHT22;3613;48.902;9.204;2023-03-23T09:29:21;15.80;99.90
7143;DHT22;3613;48.902;9.204;2023-03-23T09:31:49;15.90;99.90
7143;DHT22;3613;48.902;9.204;2023-03-23T09:34:15;16.10;99.90
7143;DHT22;3613;48.902;9.204;2023-03-23T09:36:43;16.10;99.90
7143;DHT22;3613;48.902;9.204;2023-03-23T09:39:11;16.10;99.90
7143;DHT22;3613;48.902;9.204;2023-03-23T09:47:16;16.20;99.90
7143;DHT22;3613;48.902;9.204;2023-03-23T09:50:08;16.30;99.90
7143;DHT22;3613;48.902;9.204;2023-03-23T09:53:03;16.20;99.90
7143;DHT22;3613;48.902;9.204;2023-03-23T09:55:30;16.30;99.90
7143;DHT22;3613;48.902;9.204;2023-03-23T10:00:39;16.40;99.90
7143;DHT22;3613;48.902;9.204;2023-03-23T10:03:21;16.60;99.90
7143;DHT22;3613;48.902;9.204;2023-03-23T10:05:51;16.60;99.90
7143;DHT22;3613;48.902;9.204;2023-03-23T10:08:26;16.70;99.90
7143;DHT22;3613;48.902;9.204;2023-03-23T10:11:33;16.70;99.90
7143;DHT22;3613;48.902;9.204;2023-03-23T10:16:58;16.60;99.90
7143;DHT22;3613;48.902;9.204;2023-03-23T10:22:11;16.40;99.90
7143;DHT22;3613;48.902;9.204;2023-03-23T10:25:00;16.40;99.90
7143;DHT22;3613;48.902;9.204;2023-03-23T10:30:39;16.80;99.90
7143;DHT22;3613;48.902;9.204;2023-03-23T10:33:08;17.10;99.90
7143;DHT22;3613;48.902;9.204;2023-03-23T10:38:18;17.40;99.90
7143;DHT22;3613;48.902;9.204;2023-03-23T10:41:05;17.50;99.90
7143;DHT22;3613;48.902;9.204;2023-03-23T10:43:34;17.50;99.90
7143;DHT22;3613;48.902;9.204;2023-03-23T10:46:15;17.40;99.90
7143;DHT22;3613;48.902;9.204;2023-03-23T10:48:45;17.40;99.90
7143;DHT22;3613;48.902;9.204;2023-03-23T10:51:17;17.10;99.90
7143;DHT22;3613;48.902;9.204;2023-03-23T10:53:49;17.10;99.90
7143;DHT22;3613;48.902;9.204;2023-03-23T10:56:35;17.10;99.90
7143;DHT22;3613;48.902;9.204;2023-03-23T10:59:17;17.20;99.90
7143;DHT22;3613;48.902;9.204;2023-03-23T11:01:50;17.50;99.90
7143;DHT22;3613;48.902;9.204;2023-03-23T11:04:17;17.70;99.90
7143;DHT22;3613;48.902;9.204;2023-03-23T11:06:46;18.10;99.90
7143;DHT22;3613;48.902;9.204;2023-03-23T11:09:21;18.30;99.90
7143;DHT22;3613;48.902;9.204;2023-03-23T11:11:52;18.30;99.90
7143;DHT22;3613;48.902;9.204;2023-03-23T11:17:00;18.30;99.90
7143;DHT22;3613;48.902;9.204;2023-03-23T11:19:37;18.10;99.90
7143;DHT22;3613;48.902;9.204;2023-03-23T11:22:08;18.10;99.90
7143;DHT22;3613;48.902;9.204;2023-03-23T11:24:36;18.10;99.90
7143;DHT22;3613;48.902;9.204;2023-03-23T11:27:06;17.90;99.90
7143;DHT22;3613;48.902;9.204;2023-03-23T11:29:45;17.70;99.90
7143;DHT22;3613;48.902;9.204;2023-03-23T11:32:12;17.60;99.90
7143;DHT22;3613;48.902;9.204;2023-03-23T11:34:48;17.50;99.90
7143;DHT22;3613;48.902;9.204;2023-03-23T11:37:47;17.60;99.90
7143;DHT22;3613;48.902;9.204;2023-03-23T11:40:20;17.80;99.90
7143;DHT22;3613;48.902;9.204;2023-03-23T11:42:57;18.20;99.90
7143;DHT22;3613;48.902;9.204;2023-03-23T11:45:38;18.40;99.90
7143;DHT22;3613;48.902;9.204;2023-03-23T11:56:25;18.90;99.90
7143;DHT22;3613;48.902;9.204;2023-03-23T11:58:53;18.90;99.90
7143;DHT22;3613;48.902;9.204;2023-03-23T12:01:37;18.80;99.90
7143;DHT22;3613;48.902;9.204;2023-03-23T12:09:47;18.30;99.90
7143;DHT22;3613;48.902;9.204;2023-03-23T12:12:38;18.00;99.90
7143;DHT22;3613;48.902;9.204;2023-03-23T12:20:50;17.40;99.90
7143;DHT22;3613;48.902;9.204;2023-03-23T12:34:03;16.60;99.90
7143;DHT22;3613;48.902;9.204;2023-03-23T12:36:52;16.90;99.90
7143;DHT22;3613;48.902;9.204;2023-03-23T12:44:53;18.10;99.90
7143;DHT22;3613;48.902;9.204;2023-03-23T12:47:45;18.00;99.90
7143;DHT22;3613;48.902;9.204;2023-03-23T12:50:33;18.30;99.90
7143;DHT22;3613;48.902;9.204;2023-03-23T12:53:02;17.90;99.90
7143;DHT22;3613;48.902;9.204;2023-03-23T12:55:40;17.50;99.90
7143;DHT22;3613;48.902;9.204;2023-03-23T12:58:19;18.10;99.90
7143;DHT22;3613;48.902;9.204;2023-03-23T13:06:37;18.30;99.90
7143;DHT22;3613;48.902;9.204;2023-03-23T13:09:18;18.50;99.90
7143;DHT22;3613;48.902;9.204;2023-03-23T13:11:48;18.50;99.90
7143;DHT22;3613;48.902;9.204;2023-03-23T13:14:44;18.60;99.90
7143;DHT22;3613;48.902;9.204;2023-03-23T13:20:23;18.80;99.90
7143;DHT22;3613;48.902;9.204;2023-03-23T13:25:51;18.40;99.90
7143;DHT22;3613;48.902;9.204;2023-03-23T13:28:23;18.40;99.90
7143;DHT22;3613;48.902;9.204;2023-03-23T13:31:03;18.60;99.90
7143;DHT22;3613;48.902;9.204;2023-03-23T13:33:34;18.70;99.90
7143;DHT22;3613;48.902;9.204;2023-03-23T13:36:10;18.50;99.90
7143;DHT22;3613;48.902;9.204;2023-03-23T13:38:36;18.50;99.90
7143;DHT22;3613;48.902;9.204;2023-03-23T13:41:08;18.70;99.90
7143;DHT22;3613;48.902;9.204;2023-03-23T13:43:36;18.80;99.90
7143;DHT22;3613;48.902;9.204;2023-03-23T13:46:25;18.70;99.90
7143;DHT22;3613;48.902;9.204;2023-03-23T13:56:59;18.70;99.90
7143;DHT22;3613;48.902;9.204;2023-03-23T14:01:55;18.20;99.90
7143;DHT22;3613;48.902;9.204;2023-03-23T14:04:32;17.80;99.90
7143;DHT22;3613;48.902;9.204;2023-03-23T14:07:10;17.50;99.90
7143;DHT22;3613;48.902;9.204;2023-03-23T14:09:42;17.50;99.90
7143;DHT22;3613;48.902;9.204;2023-03-23T14:12:15;17.50;99.90
7143;DHT22;3613;48.902;9.204;2023-03-23T14:14:48;17.50;99.90
7143;DHT22;3613;48.902;9.204;2023-03-23T14:17:21;17.50;99.90
7143;DHT22;3613;48.902;9.204;2023-03-23T14:19:51;17.70;99.90
7143;DHT22;3613;48.902;9.204;2023-03-23T14:22:19;17.70;99.90
7143;DHT22;3613;48.902;9.204;2023-03-23T14:24:50;17.90;99.90
7143;DHT22;3613;48.902;9.204;2023-03-23T14:27:20;18.10;99.90
7143;DHT22;3613;48.902;9.204;2023-03-23T14:29:46;18.30;99.90
7143;DHT22;3613;48.902;9.204;2023-03-23T14:32:23;18.40;99.90
7143;DHT22;3613;48.902;9.204;2023-03-23T14:34:53;18.40;99.90
7143;DHT22;3613;48.902;9.204;2023-03-23T14:37:21;18.30;99.90
7143;DHT22;3613;48.902;9.204;2023-03-23T14:39:54;18.20;99.90
7143;DHT22;3613;48.902;9.204;2023-03-23T14:42:30;18.10;99.90
7143;DHT22;3613;48.902;9.204;2023-03-23T14:44:56;18.10;99.90
7143;DHT22;3613;48.902;9.204;2023-03-23T14:47:25;18.00;99.90
7143;DHT22;3613;48.902;9.204;2023-03-23T14:49:55;18.00;99.90
7143;DHT22;3613;48.902;9.204;2023-03-23T14:52:23;18.00;99.90
7143;DHT22;3613;48.902;9.204;2023-03-23T14:54:50;18.10;99.90
7143;DHT22;3613;48.902;9.204;2023-03-23T14:59:48;17.30;99.90
7143;DHT22;3613;48.902;9.204;2023-03-23T15:02:24;17.00;99.90
7143;DHT22;3613;48.902;9.204;2023-03-23T15:04:57;16.80;99.90
7143;DHT22;3613;48.902;9.204;2023-03-23T15:07:31;16.90;99.90
7143;DHT22;3613;48.902;9.204;2023-03-23T15:10:00;16.90;99.90
7143;DHT22;3613;48.902;9.204;2023-03-23T15:12:30;16.90;99.90
7143;DHT22;3613;48.902;9.204;2023-03-23T15:15:02;17.10;99.90
7143;DHT22;3613;48.902;9.204;2023-03-23T15:17:30;16.90;99.90
7143;DHT22;3613;48.902;9.204;2023-03-23T15:19:57;17.00;99.90
7143;DHT22;3613;48.902;9.204;2023-03-23T15:22:34;16.90;99.90
7143;DHT22;3613;48.902;9.204;2023-03-23T15:25:19;16.80;99.90
7143;DHT22;3613;48.902;9.204;2023-03-23T15:27:55;16.70;99.90
7143;DHT22;3613;48.902;9.204;2023-03-23T15:32:52;16.40;99.90
7143;DHT22;3613;48.902;9.204;2023-03-23T15:35:21;16.30;99.90
7143;DHT22;3613;48.902;9.204;2023-03-23T15:38:00;14.00;99.90
7143;DHT22;3613;48.902;9.204;2023-03-23T15:40:27;16.20;99.90
7143;DHT22;3613;48.902;9.204;2023-03-23T15:43:14;16.10;99.90
7143;DHT22;3613;48.902;9.204;2023-03-23T15:45:55;16.10;99.90
7143;DHT22;3613;48.902;9.204;2023-03-23T15:48:22;16.00;99.90
7143;DHT22;3613;48.902;9.204;2023-03-23T15:50:50;15.90;99.90
7143;DHT22;3613;48.902;9.204;2023-03-23T15:53:28;15.80;99.90
7143;DHT22;3613;48.902;9.204;2023-03-23T15:55:59;15.80;99.90
7143;DHT22;3613;48.902;9.204;2023-03-23T15:58:31;15.70;99.90
7143;DHT22;3613;48.902;9.204;2023-03-23T16:01:03;15.70;99.90
7143;DHT22;3613;48.902;9.204;2023-03-23T16:04:01;15.60;99.90
7143;DHT22;3613;48.902;9.204;2023-03-23T16:06:31;15.70;99.90
7143;DHT22;3613;48.902;9.204;2023-03-23T16:08:57;15.50;99.90
7143;DHT22;3613;48.902;9.204;2023-03-23T16:11:25;15.60;99.90
7143;DHT22;3613;48.902;9.204;2023-03-23T16:13:51;15.60;99.90
7143;DHT22;3613;48.902;9.204;2023-03-23T16:19:19;15.60;99.90
7143;DHT22;3613;48.902;9.204;2023-03-23T16:21:51;15.60;99.90
7143;DHT22;3613;48.902;9.204;2023-03-23T16:24:17;15.60;99.90
7143;DHT22;3613;48.902;9.204;2023-03-23T16:26:43;15.60;99.90
7143;DHT22;3613;48.902;9.204;2023-03-23T16:29:13;15.60;99.90
7143;DHT22;3613;48.902;9.204;2023-03-23T16:31:38;15.60;99.90
7143;DHT22;3613;48.902;9.204;2023-03-23T16:34:07;15.70;99.90
7143;DHT22;3613;48.902;9.204;2023-03-23T16:36:33;15.50;99.90
7143;DHT22;3613;48.902;9.204;2023-03-23T16:38:59;15.50;99.90
7143;DHT22;3613;48.902;9.204;2023-03-23T16:41:27;15.40;99.90
7143;DHT22;3613;48.902;9.204;2023-03-23T16:43:55;15.40;99.90
7143;DHT22;3613;48.902;9.204;2023-03-23T16:46:20;15.60;99.90
7143;DHT22;3613;48.902;9.204;2023-03-23T16:48:48;15.70;99.90
7143;DHT22;3613;48.902;9.204;2023-03-23T16:51:14;15.90;99.90
7143;DHT22;3613;48.902;9.204;2023-03-23T16:53:42;16.10;99.90
7143;DHT22;3613;48.902;9.204;2023-03-23T16:56:10;16.20;99.90
7143;DHT22;3613;48.902;9.204;2023-03-23T16:58:35;16.20;99.90
7143;DHT22;3613;48.902;9.204;2023-03-23T17:01:04;16.30;99.90
7143;DHT22;3613;48.902;9.204;2023-03-23T17:03:30;16.20;99.90
7143;DHT22;3613;48.902;9.204;2023-03-23T17:05:58;16.20;99.90
7143;DHT22;3613;48.902;9.204;2023-03-23T17:08:27;16.10;99.90
7143;DHT22;3613;48.902;9.204;2023-03-23T17:11:00;17.90;99.90
7143;DHT22;3613;48.902;9.204;2023-03-23T17:13:31;15.80;99.90
7143;DHT22;3613;48.902;9.204;2023-03-23T17:15:59;15.70;99.90
7143;DHT22;3613;48.902;9.204;2023-03-23T17:18:25;15.50;99.90
7143;DHT22;3613;48.902;9.204;2023-03-23T17:20:53;15.40;99.90
7143;DHT22;3613;48.902;9.204;2023-03-23T17:23:19;15.30;99.90
7143;DHT22;3613;48.902;9.204;2023-03-23T17:25:46;15.20;99.90
7143;DHT22;3613;48.902;9.204;2023-03-23T17:28:14;15.00;99.90
7143;DHT22;3613;48.902;9.204;2023-03-23T17:30:41;15.10;99.90
7143;DHT22;3613;48.902;9.204;2023-03-23T17:33:07;15.00;99.90
7143;DHT22;3613;48.902;9.204;2023-03-23T17:35:32;14.90;99.90
7143;DHT22;3613;48.902;9.204;2023-03-23T17:37:58;15.00;99.90
7143;DHT22;3613;48.902;9.204;2023-03-23T17:40:28;14.90;99.90
7143;DHT22;3613;48.902;9.204;2023-03-23T17:42:54;14.80;99.90
7143;DHT22;3613;48.902;9.204;2023-03-23T17:45:22;14.80;99.90
7143;DHT22;3613;48.902;9.204;2023-03-23T17:47:50;14.70;99.90
7143;DHT22;3613;48.902;9.204;2023-03-23T17:50:16;14.70;99.90
7143;DHT22;3613;48.902;9.204;2023-03-23T17:52:41;14.80;99.90
7143;DHT22;3613;48.902;9.204;2023-03-23T17:55:07;14.80;99.90
7143;DHT22;3613;48.902;9.204;2023-03-23T17:57:35;14.90;99.90
7143;DHT22;3613;48.902;9.204;2023-03-23T18:00:05;15.00;99.90
7143;DHT22;3613;48.902;9.204;2023-03-23T18:02:37;15.00;99.90
7143;DHT22;3613;48.902;9.204;2023-03-23T18:05:03;15.30;99.90
7143;DHT22;3613;48.902;9.204;2023-03-23T18:07:30;15.40;99.90
7143;DHT22;3613;48.902;9.204;2023-03-23T18:09:59;15.60;99.90
7143;DHT22;3613;48.902;9.204;2023-03-23T18:12:25;15.80;99.90
7143;DHT22;3613;48.902;9.204;2023-03-23T18:14:55;15.90;99.90
7143;DHT22;3613;48.902;9.204;2023-03-23T18:17:21;15.80;99.90